Terminal Aerodrome Forecast
Issued by NWS

Home | Current Version | Previous Version | Text Only | Print | Product List | Glossary On
Versions: 1 2 3 4 5 6 7 8 9 10 11 12 13 14 15 16 17 18 19 20 21 22 23
000
FTUS43 KGLD 251720
TAFMCK
TAF
KMCK 251720Z 2518/2618 35011KT P6SM FEW250
     FM260100 09004KT P6SM FEW250
     FM260700 13006KT 4SM BR BKN015
     FM260900 13005KT 1 1/2SM BR BKN005
     FM261300 12004KT 3SM BR BKN008
     FM261500 10006KT P6SM BKN020=

USA.gov is the U.S. government's official web portal to all federal, state and local government web resources and services.